sensor_id;sensor_type;location;lat;lon;timestamp;P1;durP1;ratioP1;P2;durP2;ratioP2
6358;SDS011;3212;51.460;11.868;2024-01-07T00:01:50;28.37;;;12.47;;
6358;SDS011;3212;51.460;11.868;2024-01-07T00:05:13;27.70;;;11.90;;
6358;SDS011;3212;51.460;11.868;2024-01-07T00:08:35;30.00;;;12.33;;
6358;SDS011;3212;51.460;11.868;2024-01-07T00:11:58;27.63;;;12.77;;
6358;SDS011;3212;51.460;11.868;2024-01-07T00:15:20;27.33;;;11.43;;
6358;SDS011;3212;51.460;11.868;2024-01-07T00:18:43;29.13;;;11.33;;
6358;SDS011;3212;51.460;11.868;2024-01-07T00:22:06;31.37;;;12.03;;
6358;SDS011;3212;51.460;11.868;2024-01-07T00:25:29;30.83;;;13.20;;
6358;SDS011;3212;51.460;11.868;2024-01-07T00:28:51;30.67;;;13.10;;
6358;SDS011;3212;51.460;11.868;2024-01-07T00:32:14;30.10;;;12.20;;
6358;SDS011;3212;51.460;11.868;2024-01-07T00:35:37;27.90;;;12.40;;
6358;SDS011;3212;51.460;11.868;2024-01-07T00:38:59;22.80;;;11.00;;
6358;SDS011;3212;51.460;11.868;2024-01-07T00:42:22;26.50;;;10.03;;
6358;SDS011;3212;51.460;11.868;2024-01-07T00:45:44;22.47;;;9.83;;
6358;SDS011;3212;51.460;11.868;2024-01-07T00:49:06;20.63;;;9.57;;
6358;SDS011;3212;51.460;11.868;2024-01-07T00:52:29;20.60;;;9.20;;
6358;SDS011;3212;51.460;11.868;2024-01-07T00:55:52;21.83;;;9.70;;
6358;SDS011;3212;51.460;11.868;2024-01-07T00:59:14;16.67;;;8.00;;
6358;SDS011;3212;51.460;11.868;2024-01-07T01:02:37;21.23;;;9.00;;
6358;SDS011;3212;51.460;11.868;2024-01-07T01:05:59;19.00;;;8.53;;
6358;SDS011;3212;51.460;11.868;2024-01-07T01:09:22;17.40;;;8.50;;
6358;SDS011;3212;51.460;11.868;2024-01-07T01:12:44;19.70;;;9.20;;
6358;SDS011;3212;51.460;11.868;2024-01-07T01:16:07;16.70;;;8.73;;
6358;SDS011;3212;51.460;11.868;2024-01-07T01:19:30;18.80;;;8.50;;
6358;SDS011;3212;51.460;11.868;2024-01-07T01:22:52;19.93;;;9.40;;
6358;SDS011;3212;51.460;11.868;2024-01-07T01:26:15;20.07;;;9.20;;
6358;SDS011;3212;51.460;11.868;2024-01-07T01:29:38;18.93;;;9.30;;
6358;SDS011;3212;51.460;11.868;2024-01-07T01:33:00;26.10;;;9.57;;
6358;SDS011;3212;51.460;11.868;2024-01-07T01:36:23;19.00;;;8.77;;
6358;SDS011;3212;51.460;11.868;2024-01-07T01:39:46;15.83;;;7.70;;
6358;SDS011;3212;51.460;11.868;2024-01-07T01:43:08;17.90;;;7.80;;
6358;SDS011;3212;51.460;11.868;2024-01-07T01:46:31;18.50;;;7.87;;
6358;SDS011;3212;51.460;11.868;2024-01-07T01:49:54;17.33;;;8.30;;
6358;SDS011;3212;51.460;11.868;2024-01-07T01:53:16;23.03;;;9.00;;
6358;SDS011;3212;51.460;11.868;2024-01-07T01:56:38;15.73;;;8.13;;
6358;SDS011;3212;51.460;11.868;2024-01-07T02:00:02;16.20;;;8.53;;
6358;SDS011;3212;51.460;11.868;2024-01-07T02:03:24;23.10;;;9.20;;
6358;SDS011;3212;51.460;11.868;2024-01-07T02:06:47;17.00;;;8.63;;
6358;SDS011;3212;51.460;11.868;2024-01-07T02:10:10;19.33;;;9.20;;
6358;SDS011;3212;51.460;11.868;2024-01-07T02:13:33;21.90;;;9.73;;
6358;SDS011;3212;51.460;11.868;2024-01-07T02:16:55;20.40;;;8.93;;
6358;SDS011;3212;51.460;11.868;2024-01-07T02:20:18;19.93;;;9.30;;
6358;SDS011;3212;51.460;11.868;2024-01-07T02:23:41;19.67;;;9.47;;
6358;SDS011;3212;51.460;11.868;2024-01-07T02:27:03;21.03;;;9.60;;
6358;SDS011;3212;51.460;11.868;2024-01-07T02:30:25;17.50;;;8.70;;
6358;SDS011;3212;51.460;11.868;2024-01-07T02:33:48;22.27;;;9.60;;
6358;SDS011;3212;51.460;11.868;2024-01-07T02:37:11;17.70;;;8.23;;
6358;SDS011;3212;51.460;11.868;2024-01-07T02:40:34;13.77;;;7.50;;
6358;SDS011;3212;51.460;11.868;2024-01-07T02:43:56;13.53;;;7.10;;
6358;SDS011;3212;51.460;11.868;2024-01-07T02:47:20;12.73;;;6.63;;
6358;SDS011;3212;51.460;11.868;2024-01-07T02:50:42;12.60;;;6.43;;
6358;SDS011;3212;51.460;11.868;2024-01-07T02:54:05;13.73;;;7.10;;
6358;SDS011;3212;51.460;11.868;2024-01-07T02:57:28;15.60;;;7.43;;
6358;SDS011;3212;51.460;11.868;2024-01-07T03:00:50;10.50;;;5.80;;
6358;SDS011;3212;51.460;11.868;2024-01-07T03:04:14;14.50;;;7.10;;
6358;SDS011;3212;51.460;11.868;2024-01-07T03:07:37;17.30;;;8.20;;
6358;SDS011;3212;51.460;11.868;2024-01-07T03:10:58;14.80;;;7.37;;
6358;SDS011;3212;51.460;11.868;2024-01-07T03:14:21;12.37;;;6.57;;
6358;SDS011;3212;51.460;11.868;2024-01-07T03:17:44;13.60;;;7.57;;
6358;SDS011;3212;51.460;11.868;2024-01-07T03:21:06;12.23;;;6.80;;
6358;SDS011;3212;51.460;11.868;2024-01-07T03:24:29;12.30;;;6.43;;
6358;SDS011;3212;51.460;11.868;2024-01-07T03:27:51;15.50;;;6.70;;
6358;SDS011;3212;51.460;11.868;2024-01-07T03:31:15;11.03;;;6.30;;
6358;SDS011;3212;51.460;11.868;2024-01-07T03:34:38;12.80;;;5.87;;
6358;SDS011;3212;51.460;11.868;2024-01-07T03:37:59;11.47;;;5.70;;
6358;SDS011;3212;51.460;11.868;2024-01-07T03:41:22;10.97;;;5.60;;
6358;SDS011;3212;51.460;11.868;2024-01-07T03:44:45;10.80;;;5.10;;
6358;SDS011;3212;51.460;11.868;2024-01-07T03:48:08;10.13;;;5.00;;
6358;SDS011;3212;51.460;11.868;2024-01-07T03:51:31;11.33;;;5.43;;
6358;SDS011;3212;51.460;11.868;2024-01-07T03:54:53;8.30;;;4.90;;
6358;SDS011;3212;51.460;11.868;2024-01-07T03:58:16;8.37;;;4.87;;
6358;SDS011;3212;51.460;11.868;2024-01-07T04:01:38;11.00;;;4.83;;
6358;SDS011;3212;51.460;11.868;2024-01-07T04:05:00;10.90;;;4.87;;
6358;SDS011;3212;51.460;11.868;2024-01-07T04:08:23;10.70;;;5.47;;
6358;SDS011;3212;51.460;11.868;2024-01-07T04:11:45;9.00;;;4.73;;
6358;SDS011;3212;51.460;11.868;2024-01-07T04:15:09;7.50;;;4.17;;
6358;SDS011;3212;51.460;11.868;2024-01-07T04:18:31;8.63;;;4.37;;
6358;SDS011;3212;51.460;11.868;2024-01-07T04:21:54;6.60;;;4.00;;
6358;SDS011;3212;51.460;11.868;2024-01-07T04:25:16;7.17;;;3.80;;
6358;SDS011;3212;51.460;11.868;2024-01-07T04:28:40;11.43;;;5.00;;
6358;SDS011;3212;51.460;11.868;2024-01-07T04:32:03;7.87;;;3.77;;
6358;SDS011;3212;51.460;11.868;2024-01-07T04:35:26;8.47;;;4.00;;
6358;SDS011;3212;51.460;11.868;2024-01-07T04:38:48;5.13;;;3.43;;
6358;SDS011;3212;51.460;11.868;2024-01-07T04:42:11;8.97;;;3.93;;
6358;SDS011;3212;51.460;11.868;2024-01-07T04:45:33;5.70;;;3.70;;
6358;SDS011;3212;51.460;11.868;2024-01-07T04:48:56;7.13;;;3.93;;
6358;SDS011;3212;51.460;11.868;2024-01-07T04:52:19;8.30;;;3.77;;
6358;SDS011;3212;51.460;11.868;2024-01-07T04:55:42;6.30;;;3.53;;
6358;SDS011;3212;51.460;11.868;2024-01-07T04:59:05;7.33;;;3.83;;
6358;SDS011;3212;51.460;11.868;2024-01-07T05:02:27;7.03;;;3.97;;
6358;SDS011;3212;51.460;11.868;2024-01-07T05:05:50;6.10;;;4.30;;
6358;SDS011;3212;51.460;11.868;2024-01-07T05:09:13;4.87;;;3.03;;
6358;SDS011;3212;51.460;11.868;2024-01-07T05:12:35;7.33;;;3.57;;
6358;SDS011;3212;51.460;11.868;2024-01-07T05:15:58;4.50;;;2.77;;
6358;SDS011;3212;51.460;11.868;2024-01-07T05:19:20;5.77;;;3.90;;
6358;SDS011;3212;51.460;11.868;2024-01-07T05:22:44;6.03;;;3.43;;
6358;SDS011;3212;51.460;11.868;2024-01-07T05:26:06;9.40;;;3.37;;
6358;SDS011;3212;51.460;11.868;2024-01-07T05:29:29;8.03;;;4.30;;
6358;SDS011;3212;51.460;11.868;2024-01-07T05:32:52;6.10;;;3.00;;
6358;SDS011;3212;51.460;11.868;2024-01-07T05:36:15;5.73;;;3.20;;
6358;SDS011;3212;51.460;11.868;2024-01-07T05:39:38;4.30;;;2.90;;
6358;SDS011;3212;51.460;11.868;2024-01-07T05:43:00;4.70;;;2.90;;
6358;SDS011;3212;51.460;11.868;2024-01-07T05:46:22;6.00;;;3.60;;
6358;SDS011;3212;51.460;11.868;2024-01-07T05:49:46;5.53;;;3.30;;
6358;SDS011;3212;51.460;11.868;2024-01-07T05:53:08;6.30;;;3.03;;
6358;SDS011;3212;51.460;11.868;2024-01-07T05:56:30;6.10;;;2.70;;
6358;SDS011;3212;51.460;11.868;2024-01-07T05:59:54;5.80;;;3.10;;
6358;SDS011;3212;51.460;11.868;2024-01-07T06:03:16;4.80;;;3.10;;
6358;SDS011;3212;51.460;11.868;2024-01-07T06:06:39;4.30;;;2.93;;
6358;SDS011;3212;51.460;11.868;2024-01-07T06:10:02;8.80;;;4.07;;
6358;SDS011;3212;51.460;11.868;2024-01-07T06:13:24;6.13;;;3.60;;
6358;SDS011;3212;51.460;11.868;2024-01-07T06:16:47;8.13;;;3.37;;
6358;SDS011;3212;51.460;11.868;2024-01-07T06:20:09;5.87;;;2.90;;
6358;SDS011;3212;51.460;11.868;2024-01-07T06:23:32;6.20;;;3.57;;
6358;SDS011;3212;51.460;11.868;2024-01-07T06:26:55;5.33;;;3.00;;
6358;SDS011;3212;51.460;11.868;2024-01-07T06:30:17;8.57;;;3.60;;
6358;SDS011;3212;51.460;11.868;2024-01-07T06:33:40;5.37;;;2.50;;
6358;SDS011;3212;51.460;11.868;2024-01-07T06:37:04;3.50;;;1.93;;
6358;SDS011;3212;51.460;11.868;2024-01-07T06:40:27;2.90;;;2.20;;
6358;SDS011;3212;51.460;11.868;2024-01-07T06:43:49;2.97;;;2.00;;
6358;SDS011;3212;51.460;11.868;2024-01-07T06:47:12;4.37;;;2.60;;
6358;SDS011;3212;51.460;11.868;2024-01-07T06:50:34;3.20;;;2.40;;
6358;SDS011;3212;51.460;11.868;2024-01-07T06:53:57;2.80;;;2.00;;
6358;SDS011;3212;51.460;11.868;2024-01-07T06:57:20;4.43;;;2.70;;
6358;SDS011;3212;51.460;11.868;2024-01-07T07:00:42;3.60;;;2.00;;
6358;SDS011;3212;51.460;11.868;2024-01-07T07:04:05;2.40;;;2.20;;
6358;SDS011;3212;51.460;11.868;2024-01-07T07:07:28;2.70;;;2.03;;
6358;SDS011;3212;51.460;11.868;2024-01-07T07:10:50;3.40;;;2.00;;
6358;SDS011;3212;51.460;11.868;2024-01-07T07:14:13;2.70;;;1.87;;
6358;SDS011;3212;51.460;11.868;2024-01-07T07:17:37;3.87;;;2.20;;
6358;SDS011;3212;51.460;11.868;2024-01-07T07:21:00;3.13;;;2.50;;
6358;SDS011;3212;51.460;11.868;2024-01-07T07:24:23;3.40;;;2.20;;
6358;SDS011;3212;51.460;11.868;2024-01-07T07:27:45;4.23;;;2.43;;
6358;SDS011;3212;51.460;11.868;2024-01-07T07:31:07;3.27;;;2.70;;
6358;SDS011;3212;51.460;11.868;2024-01-07T07:34:30;6.23;;;2.90;;
6358;SDS011;3212;51.460;11.868;2024-01-07T07:37:52;3.53;;;2.83;;
6358;SDS011;3212;51.460;11.868;2024-01-07T07:41:15;5.07;;;2.90;;
6358;SDS011;3212;51.460;11.868;2024-01-07T07:44:38;4.03;;;2.90;;
6358;SDS011;3212;51.460;11.868;2024-01-07T07:48:00;4.30;;;2.93;;
6358;SDS011;3212;51.460;11.868;2024-01-07T07:51:23;4.13;;;2.97;;
6358;SDS011;3212;51.460;11.868;2024-01-07T07:54:46;4.37;;;2.67;;
6358;SDS011;3212;51.460;11.868;2024-01-07T07:58:08;2.90;;;2.60;;
6358;SDS011;3212;51.460;11.868;2024-01-07T08:01:31;4.63;;;3.13;;
6358;SDS011;3212;51.460;11.868;2024-01-07T08:04:53;4.47;;;3.30;;
6358;SDS011;3212;51.460;11.868;2024-01-07T08:08:16;4.37;;;2.60;;
6358;SDS011;3212;51.460;11.868;2024-01-07T08:11:39;3.80;;;2.87;;
6358;SDS011;3212;51.460;11.868;2024-01-07T08:15:02;2.70;;;2.27;;
6358;SDS011;3212;51.460;11.868;2024-01-07T08:18:24;2.77;;;2.27;;
6358;SDS011;3212;51.460;11.868;2024-01-07T08:21:47;4.10;;;3.10;;
6358;SDS011;3212;51.460;11.868;2024-01-07T08:25:09;3.60;;;2.40;;
6358;SDS011;3212;51.460;11.868;2024-01-07T08:28:32;3.63;;;2.70;;
6358;SDS011;3212;51.460;11.868;2024-01-07T08:31:54;5.77;;;2.60;;
6358;SDS011;3212;51.460;11.868;2024-01-07T08:35:16;3.20;;;2.40;;
6358;SDS011;3212;51.460;11.868;2024-01-07T08:38:40;2.80;;;2.20;;
6358;SDS011;3212;51.460;11.868;2024-01-07T08:42:02;3.10;;;2.70;;
6358;SDS011;3212;51.460;11.868;2024-01-07T08:45:25;5.90;;;2.97;;
6358;SDS011;3212;51.460;11.868;2024-01-07T08:48:48;3.03;;;2.53;;
6358;SDS011;3212;51.460;11.868;2024-01-07T08:52:10;4.33;;;2.20;;
6358;SDS011;3212;51.460;11.868;2024-01-07T08:55:32;5.00;;;2.60;;
6358;SDS011;3212;51.460;11.868;2024-01-07T08:58:56;2.60;;;1.90;;
6358;SDS011;3212;51.460;11.868;2024-01-07T09:02:18;2.83;;;2.10;;
6358;SDS011;3212;51.460;11.868;2024-01-07T09:05:40;4.57;;;2.60;;
6358;SDS011;3212;51.460;11.868;2024-01-07T09:09:03;6.67;;;3.00;;
6358;SDS011;3212;51.460;11.868;2024-01-07T09:12:27;3.10;;;2.20;;
6358;SDS011;3212;51.460;11.868;2024-01-07T09:15:49;6.07;;;3.67;;
6358;SDS011;3212;51.460;11.868;2024-01-07T09:19:12;5.00;;;2.53;;
6358;SDS011;3212;51.460;11.868;2024-01-07T09:22:35;3.90;;;2.40;;
6358;SDS011;3212;51.460;11.868;2024-01-07T09:25:58;3.03;;;1.80;;
6358;SDS011;3212;51.460;11.868;2024-01-07T09:29:20;2.87;;;2.27;;
6358;SDS011;3212;51.460;11.868;2024-01-07T09:32:43;3.77;;;2.20;;
6358;SDS011;3212;51.460;11.868;2024-01-07T09:36:06;4.70;;;2.83;;
6358;SDS011;3212;51.460;11.868;2024-01-07T09:39:28;3.13;;;2.30;;
6358;SDS011;3212;51.460;11.868;2024-01-07T09:42:52;6.97;;;2.73;;
6358;SDS011;3212;51.460;11.868;2024-01-07T09:46:14;3.17;;;2.00;;
6358;SDS011;3212;51.460;11.868;2024-01-07T09:49:37;3.00;;;2.07;;
6358;SDS011;3212;51.460;11.868;2024-01-07T09:52:59;6.80;;;2.30;;
6358;SDS011;3212;51.460;11.868;2024-01-07T09:56:24;5.53;;;2.70;;
6358;SDS011;3212;51.460;11.868;2024-01-07T09:59:46;5.97;;;2.87;;
6358;SDS011;3212;51.460;11.868;2024-01-07T10:03:09;6.87;;;3.30;;
6358;SDS011;3212;51.460;11.868;2024-01-07T10:06:31;6.73;;;3.00;;
6358;SDS011;3212;51.460;11.868;2024-01-07T10:09:53;5.80;;;3.00;;
6358;SDS011;3212;51.460;11.868;2024-01-07T10:13:17;4.40;;;2.83;;
6358;SDS011;3212;51.460;11.868;2024-01-07T10:16:39;1.97;;;1.70;;
6358;SDS011;3212;51.460;11.868;2024-01-07T10:20:04;1.33;;;1.23;;
6358;SDS011;3212;51.460;11.868;2024-01-07T10:23:27;3.10;;;1.80;;
6358;SDS011;3212;51.460;11.868;2024-01-07T10:26:50;3.70;;;2.47;;
6358;SDS011;3212;51.460;11.868;2024-01-07T10:30:12;2.00;;;1.60;;
6358;SDS011;3212;51.460;11.868;2024-01-07T10:33:35;4.40;;;1.70;;
6358;SDS011;3212;51.460;11.868;2024-01-07T10:36:59;2.97;;;1.75;;
6358;SDS011;3212;51.460;11.868;2024-01-07T10:40:21;1.63;;;1.50;;
6358;SDS011;3212;51.460;11.868;2024-01-07T10:43:47;2.33;;;1.30;;
6358;SDS011;3212;51.460;11.868;2024-01-07T10:47:09;1.47;;;1.20;;
6358;SDS011;3212;51.460;11.868;2024-01-07T10:50:31;1.83;;;1.43;;
6358;SDS011;3212;51.460;11.868;2024-01-07T10:53:55;1.73;;;1.20;;
6358;SDS011;3212;51.460;11.868;2024-01-07T10:57:21;3.20;;;1.67;;
6358;SDS011;3212;51.460;11.868;2024-01-07T11:00:47;1.50;;;1.40;;
6358;SDS011;3212;51.460;11.868;2024-01-07T11:04:13;1.20;;;1.10;;
6358;SDS011;3212;51.460;11.868;2024-01-07T11:07:53;1.73;;;1.50;;
6358;SDS011;3212;51.460;11.868;2024-01-07T11:11:31;1.20;;;1.10;;
6358;SDS011;3212;51.460;11.868;2024-01-07T11:15:02;1.60;;;1.20;;
6358;SDS011;3212;51.460;11.868;2024-01-07T11:18:26;1.87;;;1.53;;
6358;SDS011;3212;51.460;11.868;2024-01-07T11:21:48;4.10;;;2.27;;
6358;SDS011;3212;51.460;11.868;2024-01-07T11:28:48;1.33;;;1.20;;
6358;SDS011;3212;51.460;11.868;2024-01-07T11:32:13;3.33;;;1.50;;
6358;SDS011;3212;51.460;11.868;2024-01-07T11:39:18;1.30;;;1.20;;
6358;SDS011;3212;51.460;11.868;2024-01-07T11:42:40;2.07;;;1.80;;
6358;SDS011;3212;51.460;11.868;2024-01-07T11:46:03;1.83;;;1.20;;
6358;SDS011;3212;51.460;11.868;2024-01-07T11:49:25;1.97;;;1.40;;
6358;SDS011;3212;51.460;11.868;2024-01-07T11:52:47;4.40;;;1.90;;
6358;SDS011;3212;51.460;11.868;2024-01-07T11:56:10;1.10;;;1.10;;
6358;SDS011;3212;51.460;11.868;2024-01-07T11:59:33;1.93;;;1.03;;
6358;SDS011;3212;51.460;11.868;2024-01-07T12:02:56;1.17;;;1.00;;
6358;SDS011;3212;51.460;11.868;2024-01-07T12:06:19;1.33;;;0.93;;
6358;SDS011;3212;51.460;11.868;2024-01-07T12:09:41;1.37;;;1.10;;
6358;SDS011;3212;51.460;11.868;2024-01-07T12:13:04;1.73;;;1.20;;
6358;SDS011;3212;51.460;11.868;2024-01-07T12:16:26;5.70;;;2.80;;
6358;SDS011;3212;51.460;11.868;2024-01-07T12:19:49;2.53;;;1.98;;
6358;SDS011;3212;51.460;11.868;2024-01-07T12:23:12;1.30;;;1.20;;
6358;SDS011;3212;51.460;11.868;2024-01-07T12:26:34;1.73;;;1.17;;
6358;SDS011;3212;51.460;11.868;2024-01-07T12:29:57;2.40;;;1.40;;
6358;SDS011;3212;51.460;11.868;2024-01-07T12:33:20;1.47;;;1.37;;
6358;SDS011;3212;51.460;11.868;2024-01-07T12:36:42;2.17;;;1.33;;
6358;SDS011;3212;51.460;11.868;2024-01-07T12:40:05;3.10;;;2.00;;
6358;SDS011;3212;51.460;11.868;2024-01-07T12:43:28;1.30;;;1.20;;
6358;SDS011;3212;51.460;11.868;2024-01-07T12:46:51;2.03;;;1.60;;
6358;SDS011;3212;51.460;11.868;2024-01-07T12:50:13;1.80;;;1.70;;
6358;SDS011;3212;51.460;11.868;2024-01-07T12:53:36;1.60;;;1.50;;
6358;SDS011;3212;51.460;11.868;2024-01-07T12:56:59;1.73;;;1.60;;
6358;SDS011;3212;51.460;11.868;2024-01-07T13:00:21;2.03;;;1.83;;
6358;SDS011;3212;51.460;11.868;2024-01-07T13:03:44;1.40;;;1.30;;
6358;SDS011;3212;51.460;11.868;2024-01-07T13:07:06;2.93;;;2.00;;
6358;SDS011;3212;51.460;11.868;2024-01-07T13:10:29;1.92;;;1.60;;
6358;SDS011;3212;51.460;11.868;2024-01-07T13:13:51;2.37;;;2.17;;
6358;SDS011;3212;51.460;11.868;2024-01-07T13:17:14;3.30;;;2.17;;
6358;SDS011;3212;51.460;11.868;2024-01-07T13:20:36;2.03;;;1.70;;
6358;SDS011;3212;51.460;11.868;2024-01-07T13:23:59;1.70;;;1.60;;
6358;SDS011;3212;51.460;11.868;2024-01-07T13:27:22;2.03;;;1.67;;
6358;SDS011;3212;51.460;11.868;2024-01-07T13:30:44;2.57;;;2.00;;
6358;SDS011;3212;51.460;11.868;2024-01-07T13:34:07;2.30;;;2.10;;
6358;SDS011;3212;51.460;11.868;2024-01-07T13:37:30;2.50;;;2.20;;
6358;SDS011;3212;51.460;11.868;2024-01-07T13:40:52;3.83;;;1.90;;
6358;SDS011;3212;51.460;11.868;2024-01-07T13:44:15;2.87;;;1.93;;
6358;SDS011;3212;51.460;11.868;2024-01-07T13:47:39;2.47;;;2.10;;
6358;SDS011;3212;51.460;11.868;2024-01-07T13:51:01;4.33;;;2.00;;
6358;SDS011;3212;51.460;11.868;2024-01-07T13:54:23;3.57;;;2.60;;
6358;SDS011;3212;51.460;11.868;2024-01-07T13:57:47;2.13;;;1.87;;
6358;SDS011;3212;51.460;11.868;2024-01-07T14:01:10;2.63;;;2.30;;
6358;SDS011;3212;51.460;11.868;2024-01-07T14:04:33;2.57;;;2.13;;
6358;SDS011;3212;51.460;11.868;2024-01-07T14:07:55;3.10;;;2.57;;
6358;SDS011;3212;51.460;11.868;2024-01-07T14:11:18;3.50;;;2.43;;
6358;SDS011;3212;51.460;11.868;2024-01-07T14:14:41;2.40;;;1.90;;
6358;SDS011;3212;51.460;11.868;2024-01-07T14:18:04;2.80;;;2.10;;
6358;SDS011;3212;51.460;11.868;2024-01-07T14:21:26;4.00;;;2.40;;
6358;SDS011;3212;51.460;11.868;2024-01-07T14:24:48;2.83;;;2.00;;
6358;SDS011;3212;51.460;11.868;2024-01-07T14:28:11;4.50;;;2.90;;
6358;SDS011;3212;51.460;11.868;2024-01-07T14:31:34;5.03;;;3.10;;
6358;SDS011;3212;51.460;11.868;2024-01-07T14:34:56;3.73;;;2.97;;
6358;SDS011;3212;51.460;11.868;2024-01-07T14:38:19;6.47;;;3.30;;
6358;SDS011;3212;51.460;11.868;2024-01-07T14:41:41;5.50;;;3.40;;
6358;SDS011;3212;51.460;11.868;2024-01-07T14:45:05;5.83;;;3.37;;
6358;SDS011;3212;51.460;11.868;2024-01-07T14:48:28;4.80;;;3.17;;
6358;SDS011;3212;51.460;11.868;2024-01-07T14:51:51;4.47;;;2.80;;
6358;SDS011;3212;51.460;11.868;2024-01-07T14:55:13;4.80;;;3.03;;
6358;SDS011;3212;51.460;11.868;2024-01-07T14:58:36;4.53;;;3.20;;
6358;SDS011;3212;51.460;11.868;2024-01-07T15:01:59;4.07;;;2.80;;
6358;SDS011;3212;51.460;11.868;2024-01-07T15:05:21;4.40;;;2.97;;
6358;SDS011;3212;51.460;11.868;2024-01-07T15:08:44;5.43;;;3.00;;
6358;SDS011;3212;51.460;11.868;2024-01-07T15:12:08;6.40;;;3.10;;
6358;SDS011;3212;51.460;11.868;2024-01-07T15:15:30;7.53;;;3.27;;
6358;SDS011;3212;51.460;11.868;2024-01-07T15:18:53;5.77;;;3.40;;
6358;SDS011;3212;51.460;11.868;2024-01-07T15:22:16;5.12;;;3.30;;
6358;SDS011;3212;51.460;11.868;2024-01-07T15:25:39;6.77;;;3.20;;
6358;SDS011;3212;51.460;11.868;2024-01-07T15:29:02;4.63;;;3.40;;
6358;SDS011;3212;51.460;11.868;2024-01-07T15:32:24;5.47;;;3.40;;
6358;SDS011;3212;51.460;11.868;2024-01-07T15:35:47;7.50;;;3.90;;
6358;SDS011;3212;51.460;11.868;2024-01-07T15:39:10;6.40;;;3.63;;
6358;SDS011;3212;51.460;11.868;2024-01-07T15:42:38;6.73;;;3.60;;
6358;SDS011;3212;51.460;11.868;2024-01-07T15:45:59;6.07;;;3.63;;
6358;SDS011;3212;51.460;11.868;2024-01-07T15:49:22;5.00;;;3.73;;
6358;SDS011;3212;51.460;11.868;2024-01-07T15:52:46;5.70;;;3.70;;
6358;SDS011;3212;51.460;11.868;2024-01-07T15:56:08;5.00;;;3.70;;
6358;SDS011;3212;51.460;11.868;2024-01-07T15:59:31;7.80;;;3.63;;
6358;SDS011;3212;51.460;11.868;2024-01-07T16:02:53;6.80;;;3.70;;
6358;SDS011;3212;51.460;11.868;2024-01-07T16:06:19;6.60;;;3.47;;
6358;SDS011;3212;51.460;11.868;2024-01-07T16:09:41;7.17;;;4.20;;
6358;SDS011;3212;51.460;11.868;2024-01-07T16:13:04;7.37;;;3.70;;
6358;SDS011;3212;51.460;11.868;2024-01-07T16:16:26;9.85;;;4.62;;
6358;SDS011;3212;51.460;11.868;2024-01-07T16:19:49;6.27;;;3.53;;
6358;SDS011;3212;51.460;11.868;2024-01-07T16:23:12;13.90;;;4.93;;
6358;SDS011;3212;51.460;11.868;2024-01-07T16:26:34;10.77;;;4.20;;
6358;SDS011;3212;51.460;11.868;2024-01-07T16:29:57;4.53;;;3.37;;
6358;SDS011;3212;51.460;11.868;2024-01-07T16:33:20;5.13;;;3.50;;
6358;SDS011;3212;51.460;11.868;2024-01-07T16:36:43;6.87;;;3.33;;
6358;SDS011;3212;51.460;11.868;2024-01-07T16:40:06;7.17;;;3.93;;
6358;SDS011;3212;51.460;11.868;2024-01-07T16:43:30;6.23;;;3.50;;
6358;SDS011;3212;51.460;11.868;2024-01-07T16:46:52;7.73;;;3.50;;
6358;SDS011;3212;51.460;11.868;2024-01-07T16:50:14;11.77;;;5.93;;
6358;SDS011;3212;51.460;11.868;2024-01-07T16:53:37;20.93;;;10.07;;
6358;SDS011;3212;51.460;11.868;2024-01-07T16:56:59;25.67;;;13.60;;
6358;SDS011;3212;51.460;11.868;2024-01-07T17:00:22;14.93;;;8.37;;
6358;SDS011;3212;51.460;11.868;2024-01-07T17:03:44;9.43;;;4.90;;
6358;SDS011;3212;51.460;11.868;2024-01-07T17:07:07;8.43;;;5.00;;
6358;SDS011;3212;51.460;11.868;2024-01-07T17:10:32;11.20;;;5.27;;
6358;SDS011;3212;51.460;11.868;2024-01-07T17:13:54;9.50;;;5.30;;
6358;SDS011;3212;51.460;11.868;2024-01-07T17:17:17;11.27;;;6.20;;
6358;SDS011;3212;51.460;11.868;2024-01-07T17:20:40;8.53;;;4.37;;
6358;SDS011;3212;51.460;11.868;2024-01-07T17:24:03;5.00;;;3.40;;
6358;SDS011;3212;51.460;11.868;2024-01-07T17:27:26;3.70;;;2.50;;
6358;SDS011;3212;51.460;11.868;2024-01-07T17:30:49;6.67;;;3.40;;
6358;SDS011;3212;51.460;11.868;2024-01-07T17:34:11;6.20;;;3.13;;
6358;SDS011;3212;51.460;11.868;2024-01-07T17:37:34;5.10;;;2.43;;
6358;SDS011;3212;51.460;11.868;2024-01-07T17:40:56;3.77;;;2.30;;
6358;SDS011;3212;51.460;11.868;2024-01-07T17:44:18;3.73;;;2.50;;
6358;SDS011;3212;51.460;11.868;2024-01-07T17:47:41;2.83;;;2.17;;
6358;SDS011;3212;51.460;11.868;2024-01-07T17:51:04;2.73;;;2.13;;
6358;SDS011;3212;51.460;11.868;2024-01-07T17:54:26;2.80;;;2.30;;
6358;SDS011;3212;51.460;11.868;2024-01-07T17:57:49;3.60;;;2.20;;
6358;SDS011;3212;51.460;11.868;2024-01-07T18:01:12;2.90;;;2.40;;
6358;SDS011;3212;51.460;11.868;2024-01-07T18:04:34;3.07;;;2.00;;
6358;SDS011;3212;51.460;11.868;2024-01-07T18:07:57;3.73;;;2.00;;
6358;SDS011;3212;51.460;11.868;2024-01-07T18:11:19;3.17;;;2.20;;
6358;SDS011;3212;51.460;11.868;2024-01-07T18:14:42;4.57;;;2.30;;
6358;SDS011;3212;51.460;11.868;2024-01-07T18:18:05;4.20;;;2.90;;
6358;SDS011;3212;51.460;11.868;2024-01-07T18:21:27;9.20;;;2.90;;
6358;SDS011;3212;51.460;11.868;2024-01-07T18:24:50;4.47;;;2.70;;
6358;SDS011;3212;51.460;11.868;2024-01-07T18:28:13;4.13;;;2.30;;
6358;SDS011;3212;51.460;11.868;2024-01-07T18:31:38;2.53;;;1.90;;
6358;SDS011;3212;51.460;11.868;2024-01-07T18:35:01;2.63;;;2.20;;
6358;SDS011;3212;51.460;11.868;2024-01-07T18:38:25;4.50;;;3.33;;
6358;SDS011;3212;51.460;11.868;2024-01-07T18:41:47;3.73;;;2.70;;
6358;SDS011;3212;51.460;11.868;2024-01-07T18:45:09;4.43;;;3.20;;
6358;SDS011;3212;51.460;11.868;2024-01-07T18:48:33;4.70;;;2.70;;
6358;SDS011;3212;51.460;11.868;2024-01-07T18:51:55;5.50;;;2.73;;
6358;SDS011;3212;51.460;11.868;2024-01-07T18:55:18;2.03;;;1.80;;
6358;SDS011;3212;51.460;11.868;2024-01-07T18:58:41;2.30;;;1.90;;
6358;SDS011;3212;51.460;11.868;2024-01-07T19:02:03;2.67;;;2.13;;
6358;SDS011;3212;51.460;11.868;2024-01-07T19:05:26;4.60;;;2.73;;
6358;SDS011;3212;51.460;11.868;2024-01-07T19:08:49;3.93;;;2.30;;
6358;SDS011;3212;51.460;11.868;2024-01-07T19:12:11;6.13;;;3.17;;
6358;SDS011;3212;51.460;11.868;2024-01-07T19:15:34;5.00;;;2.87;;
6358;SDS011;3212;51.460;11.868;2024-01-07T19:18:57;4.03;;;2.30;;
6358;SDS011;3212;51.460;11.868;2024-01-07T19:22:19;3.30;;;2.37;;
6358;SDS011;3212;51.460;11.868;2024-01-07T19:25:42;2.73;;;2.30;;
6358;SDS011;3212;51.460;11.868;2024-01-07T19:29:05;3.53;;;2.60;;
6358;SDS011;3212;51.460;11.868;2024-01-07T19:32:27;3.70;;;2.83;;
6358;SDS011;3212;51.460;11.868;2024-01-07T19:35:50;4.40;;;2.80;;
6358;SDS011;3212;51.460;11.868;2024-01-07T19:39:13;3.47;;;2.77;;
6358;SDS011;3212;51.460;11.868;2024-01-07T19:42:35;4.87;;;3.10;;
6358;SDS011;3212;51.460;11.868;2024-01-07T19:45:58;5.60;;;2.80;;
6358;SDS011;3212;51.460;11.868;2024-01-07T19:49:21;4.30;;;2.73;;
6358;SDS011;3212;51.460;11.868;2024-01-07T19:52:44;4.80;;;2.93;;
6358;SDS011;3212;51.460;11.868;2024-01-07T19:56:07;3.73;;;2.80;;
6358;SDS011;3212;51.460;11.868;2024-01-07T19:59:30;4.93;;;3.00;;
6358;SDS011;3212;51.460;11.868;2024-01-07T20:02:53;4.67;;;3.00;;
6358;SDS011;3212;51.460;11.868;2024-01-07T20:06:16;4.40;;;2.80;;
6358;SDS011;3212;51.460;11.868;2024-01-07T20:09:39;3.57;;;2.90;;
6358;SDS011;3212;51.460;11.868;2024-01-07T20:13:01;3.47;;;3.00;;
6358;SDS011;3212;51.460;11.868;2024-01-07T20:16:24;5.20;;;3.60;;
6358;SDS011;3212;51.460;11.868;2024-01-07T20:19:46;3.53;;;2.43;;
6358;SDS011;3212;51.460;11.868;2024-01-07T20:23:09;4.40;;;2.57;;
6358;SDS011;3212;51.460;11.868;2024-01-07T20:26:31;4.67;;;2.50;;
6358;SDS011;3212;51.460;11.868;2024-01-07T20:29:54;4.70;;;3.07;;
6358;SDS011;3212;51.460;11.868;2024-01-07T20:33:16;5.87;;;3.07;;
6358;SDS011;3212;51.460;11.868;2024-01-07T20:36:39;4.37;;;2.80;;
6358;SDS011;3212;51.460;11.868;2024-01-07T20:40:02;5.20;;;3.13;;
6358;SDS011;3212;51.460;11.868;2024-01-07T20:43:32;3.95;;;2.83;;